createdAt,value
2018-11-12T00:01:57.906Z,99.90
2018-11-12T00:05:34.069Z,99.90
2018-11-12T00:08:26.937Z,99.90
2018-11-12T00:14:40.984Z,99.90
2018-11-12T00:17:20.733Z,99.90
2018-11-12T00:19:59.278Z,99.90
2018-11-12T00:22:36.846Z,99.90
2018-11-12T00:25:10.631Z,99.90
2018-11-12T00:27:46.502Z,99.90
2018-11-12T01:55:01.453Z,99.90
2018-11-12T01:58:06.890Z,99.90
2018-11-12T02:19:19.670Z,99.90
2018-11-12T02:34:52.621Z,99.90
2018-11-12T02:37:40.475Z,99.90
2018-11-12T02:51:51.168Z,99.90
2018-11-12T05:44:16.463Z,99.90
2018-11-12T05:50:17.001Z,99.90
2018-11-12T05:52:55.869Z,99.90
2018-11-12T05:55:38.236Z,99.90
2018-11-12T07:04:22.742Z,99.90
2018-11-12T07:07:12.575Z,99.90
2018-11-12T07:09:57.982Z,99.90
2018-11-12T07:12:46.265Z,99.90
2018-11-12T07:15:25.060Z,99.90
2018-11-12T07:17:58.920Z,99.90
2018-11-12T07:20:32.097Z,99.90
2018-11-12T07:26:44.210Z,99.90
2018-11-12T07:29:20.480Z,99.90
2018-11-12T07:31:55.525Z,99.90
2018-11-12T07:37:33.172Z,99.90
2018-11-12T07:48:35.664Z,99.90
2018-11-12T07:51:09.985Z,99.90
2018-11-12T07:53:50.874Z,99.90
2018-11-12T07:56:42.437Z,99.90
2018-11-12T07:59:25.881Z,99.90
2018-11-12T08:05:19.528Z,99.90
2018-11-12T08:10:55.549Z,99.90
2018-11-12T08:13:33.308Z,99.90
2018-11-12T08:16:16.609Z,99.90
2018-11-12T08:18:58.032Z,99.90
2018-11-12T08:21:44.731Z,99.90
2018-11-12T08:28:17.752Z,99.90
2018-11-12T08:31:28.488Z,83.20
2018-11-12T08:34:01.960Z,56.20
2018-11-12T08:36:36.606Z,50.60
2018-11-12T08:39:19.847Z,50.20
2018-11-12T08:41:58.017Z,48.90
2018-11-12T08:44:44.261Z,49.00
2018-11-12T08:47:27.255Z,45.10
2018-11-12T08:50:24.817Z,46.70
2018-11-12T08:56:16.259Z,41.60
2018-11-12T08:59:21.886Z,39.90
2018-11-12T09:02:04.044Z,42.50
2018-11-12T09:04:55.097Z,40.40
2018-11-12T09:17:01.776Z,38.90
2018-11-12T09:19:48.957Z,36.70
2018-11-12T09:22:33.888Z,37.80
2018-11-12T09:25:22.038Z,37.60
2018-11-12T09:28:12.301Z,37.20
2018-11-12T09:36:38.721Z,35.50
2018-11-12T09:39:22.211Z,37.20
2018-11-12T09:48:01.035Z,35.70
2018-11-12T10:17:27.192Z,37.10
2018-11-12T10:20:40.231Z,38.20
2018-11-12T10:26:57.678Z,39.60
2018-11-12T10:33:02.981Z,38.80
2018-11-12T10:36:08.215Z,40.90
2018-11-12T10:39:08.285Z,43.50
2018-11-12T10:51:53.424Z,48.10
2018-11-12T10:58:24.071Z,44.80
2018-11-12T11:02:48.339Z,43.90
2018-11-12T11:05:26.031Z,42.10
2018-11-12T11:09:15.049Z,41.80
2018-11-12T11:11:51.028Z,44.10
2018-11-12T11:21:59.023Z,44.30
2018-11-12T12:15:47.891Z,44.10
2018-11-12T12:18:25.481Z,44.40
2018-11-12T12:21:01.734Z,44.10
2018-11-12T12:23:47.178Z,43.10
2018-11-12T12:29:39.615Z,39.00
2018-11-12T12:32:24.547Z,38.50
2018-11-12T12:35:11.337Z,38.60
2018-11-12T12:38:07.750Z,40.40
2018-11-12T12:43:58.333Z,38.00
2018-11-12T12:46:46.305Z,38.00
2018-11-12T12:49:31.201Z,36.50
2018-11-12T12:52:06.519Z,37.70
2018-11-12T12:54:41.941Z,39.00
2018-11-12T12:57:24.099Z,38.40
2018-11-12T13:00:00.094Z,37.60
2018-11-12T13:02:42.394Z,37.50
2018-11-12T13:05:20.146Z,38.50
2018-11-12T13:11:12.607Z,37.40
2018-11-12T13:24:34.805Z,42.10
2018-11-12T13:27:05.972Z,43.50
2018-11-12T13:29:38.080Z,42.20
2018-11-12T13:32:09.252Z,44.20
2018-11-12T13:34:41.246Z,44.10
2018-11-12T13:37:12.937Z,46.30
2018-11-12T13:39:44.335Z,46.30
2018-11-12T13:42:16.540Z,47.10
2018-11-12T13:44:48.471Z,47.20
2018-11-12T13:47:19.623Z,49.20
2018-11-12T13:50:13.837Z,50.00
2018-11-12T13:52:47.732Z,52.20
2018-11-12T14:19:34.395Z,99.90
2018-11-12T14:22:10.342Z,99.90
2018-11-12T14:27:18.787Z,99.90
2018-11-12T14:36:46.889Z,99.90
2018-11-12T14:39:47.775Z,99.90
2018-11-12T14:42:18.879Z,99.90
2018-11-12T14:44:49.505Z,99.90
2018-11-12T14:54:59.242Z,99.90
2018-11-12T14:58:07.647Z,99.90
2018-11-12T15:03:35.819Z,99.90
2018-11-12T15:06:08.433Z,99.90
2018-11-12T15:08:39.636Z,99.90
2018-11-12T15:11:33.709Z,99.90
2018-11-12T15:14:04.581Z,99.90
2018-11-12T15:16:37.129Z,99.90
2018-11-12T15:19:08.396Z,99.90
2018-11-12T15:21:40.415Z,99.90
2018-11-12T15:24:11.075Z,99.90
2018-11-12T15:26:42.190Z,99.90
2018-11-12T15:29:12.832Z,99.90
2018-11-12T15:31:45.023Z,99.90
2018-11-12T15:34:15.886Z,99.90
2018-11-12T15:36:46.844Z,99.90
2018-11-12T15:39:19.280Z,99.90
2018-11-12T15:41:50.408Z,99.90
2018-11-12T15:44:21.304Z,99.90
2018-11-12T15:46:52.360Z,99.90
2018-11-12T15:49:25.000Z,99.90
2018-11-12T15:51:56.020Z,99.90
2018-11-12T15:54:26.058Z,99.90
2018-11-12T15:56:56.963Z,99.90
2018-11-12T15:59:29.439Z,99.90
2018-11-12T16:02:06.833Z,99.90
2018-11-12T16:25:54.710Z,99.90
2018-11-12T16:28:26.269Z,99.90
2018-11-12T16:30:57.413Z,99.90
2018-11-12T16:33:28.455Z,99.90
2018-11-12T16:35:59.230Z,99.90
2018-11-12T16:38:29.177Z,99.90
2018-11-12T16:41:00.046Z,99.90
2018-11-12T16:43:31.009Z,99.90
2018-11-12T16:46:02.024Z,99.90
2018-11-12T16:48:33.704Z,99.90
2018-11-12T16:51:04.552Z,99.90
2018-11-12T16:53:35.531Z,99.90
2018-11-12T16:56:07.520Z,99.90
2018-11-12T16:58:40.508Z,99.90
2018-11-12T17:01:20.457Z,99.90
2018-11-12T17:03:51.316Z,99.90
2018-11-12T17:06:24.928Z,99.90
2018-11-12T17:08:57.851Z,99.90
2018-11-12T17:11:32.091Z,99.90
2018-11-12T17:14:02.972Z,99.90
2018-11-12T17:16:33.916Z,99.90
2018-11-12T17:19:06.758Z,99.90
2018-11-12T17:21:39.226Z,99.90
2018-11-12T17:24:11.811Z,99.90
2018-11-12T17:26:48.315Z,99.90
2018-11-12T17:29:20.311Z,99.90
2018-11-12T17:31:51.141Z,99.90
2018-11-12T17:34:22.194Z,99.90
2018-11-12T17:37:00.693Z,99.90
2018-11-12T17:39:31.956Z,99.90
2018-11-12T17:42:04.051Z,99.90
2018-11-12T17:44:48.005Z,99.90
2018-11-12T17:47:18.742Z,99.90
2018-11-12T17:49:53.906Z,99.90
2018-11-12T17:52:24.708Z,99.90
2018-11-12T17:54:55.707Z,99.90
2018-11-12T17:57:25.530Z,99.90
2018-11-12T17:59:56.359Z,99.90
2018-11-12T18:02:27.625Z,99.90
2018-11-12T18:04:58.100Z,99.90
2018-11-12T18:07:29.512Z,99.90
2018-11-12T18:09:59.930Z,99.90
2018-11-12T18:12:30.761Z,99.90
2018-11-12T18:15:03.673Z,99.90
2018-11-12T18:17:34.942Z,99.90
2018-11-12T18:20:05.004Z,99.90
2018-11-12T18:22:36.379Z,99.90
2018-11-12T18:25:08.989Z,99.90
2018-11-12T18:27:41.162Z,99.90
2018-11-12T18:30:15.032Z,99.90
2018-11-12T18:32:47.547Z,99.90
2018-11-12T18:35:18.527Z,99.90
2018-11-12T18:38:02.523Z,99.90
2018-11-12T18:40:32.821Z,99.90
2018-11-12T18:43:03.738Z,99.90
2018-11-12T18:45:34.287Z,99.90
2018-11-12T18:48:05.277Z,99.90
2018-11-12T18:50:36.256Z,99.90
2018-11-12T18:53:07.205Z,99.90
2018-11-12T18:55:38.184Z,99.90
2018-11-12T18:58:10.160Z,99.90
2018-11-12T19:03:43.940Z,99.90
2018-11-12T19:06:16.112Z,99.90
2018-11-12T19:08:45.960Z,99.90
2018-11-12T19:11:16.751Z,99.90
2018-11-12T19:13:47.587Z,99.90
2018-11-12T19:16:18.859Z,99.90
2018-11-12T19:18:49.895Z,99.90
2018-11-12T19:21:20.372Z,99.90
2018-11-12T19:23:50.987Z,99.90
2018-11-12T19:26:23.182Z,99.90
2018-11-12T19:28:54.048Z,99.90
2018-11-12T19:31:24.864Z,99.90
2018-11-12T19:33:56.151Z,99.90
2018-11-12T19:36:27.585Z,99.90
2018-11-12T19:38:59.327Z,99.90
2018-11-12T19:41:32.028Z,99.90
2018-11-12T19:44:05.683Z,99.90
2018-11-12T19:46:38.821Z,99.90
2018-11-12T19:49:10.786Z,99.90
2018-11-12T19:51:43.156Z,99.90
2018-11-12T19:54:14.584Z,99.90
2018-11-12T19:57:00.775Z,99.90
2018-11-12T20:30:02.776Z,99.90
2018-11-12T23:14:28.688Z,99.90
2018-11-12T23:20:01.525Z,99.90
2018-11-12T23:22:36.347Z,99.90
2018-11-12T23:25:09.923Z,99.90
2018-11-12T23:27:43.692Z,99.90
2018-11-12T23:30:18.083Z,99.90
2018-11-12T23:32:52.676Z,99.90
2018-11-12T23:35:25.903Z,99.90
2018-11-12T23:37:58.713Z,99.90
2018-11-12T23:40:30.877Z,99.90
2018-11-12T23:43:13.124Z,99.90
